createdAt,value
2019-06-20T00:00:15.389Z,18.60
2019-06-20T00:02:47.087Z,18.80
2019-06-20T00:05:18.840Z,18.80
2019-06-20T00:07:50.454Z,18.90
2019-06-20T00:10:21.855Z,18.90
2019-06-20T00:13:00.535Z,18.90
2019-06-20T00:15:25.890Z,18.90
2019-06-20T00:17:56.830Z,18.90
2019-06-20T00:20:28.577Z,18.90
2019-06-20T00:22:59.877Z,18.80
2019-06-20T00:25:31.198Z,18.80
2019-06-20T00:28:02.863Z,18.80
2019-06-20T00:30:34.121Z,18.80
2019-06-20T00:33:05.413Z,18.70
2019-06-20T00:35:36.991Z,18.70
2019-06-20T00:38:08.378Z,18.70
2019-06-20T00:40:39.944Z,18.60
2019-06-20T00:43:17.407Z,18.60
2019-06-20T00:45:44.421Z,18.60
2019-06-20T00:48:15.232Z,18.60
2019-06-20T00:50:46.458Z,18.40
2019-06-20T00:53:18.178Z,18.40
2019-06-20T00:55:50.065Z,18.50
2019-06-20T00:58:21.407Z,18.40
2019-06-20T01:00:52.747Z,18.30
2019-06-20T01:03:23.658Z,18.30
2019-06-20T01:05:54.953Z,18.30
2019-06-20T01:08:25.831Z,18.30
2019-06-20T01:10:57.225Z,18.40
2019-06-20T01:13:33.466Z,18.30
2019-06-20T01:16:02.226Z,18.20
2019-06-20T01:18:33.192Z,18.20
2019-06-20T01:21:04.927Z,18.20
2019-06-20T01:23:36.209Z,18.20
2019-06-20T01:26:07.528Z,18.20
2019-06-20T01:28:38.773Z,18.20
2019-06-20T01:31:10.365Z,18.20
2019-06-20T01:33:41.307Z,18.20
2019-06-20T01:36:13.176Z,18.30
2019-06-20T01:38:44.756Z,18.40
2019-06-20T01:41:15.693Z,18.40
2019-06-20T01:43:50.942Z,18.50
2019-06-20T01:46:20.515Z,18.40
2019-06-20T01:48:51.827Z,18.30
2019-06-20T01:51:23.078Z,18.20
2019-06-20T01:53:53.784Z,18.20
2019-06-20T01:56:25.325Z,18.20
2019-06-20T01:58:56.621Z,18.20
2019-06-20T02:01:27.613Z,18.30
2019-06-20T02:03:59.214Z,18.20
2019-06-20T02:06:31.076Z,18.40
2019-06-20T02:09:02.436Z,18.30
2019-06-20T02:11:33.366Z,18.30
2019-06-20T02:14:07.493Z,18.30
2019-06-20T02:16:36.486Z,18.30
2019-06-20T02:19:07.917Z,18.20
2019-06-20T02:21:39.452Z,18.10
2019-06-20T02:24:10.860Z,18.10
2019-06-20T02:26:42.156Z,18.10
2019-06-20T02:29:13.783Z,18.10
2019-06-20T02:31:45.015Z,18.00
2019-06-20T02:34:15.990Z,18.10
2019-06-20T02:36:47.594Z,18.10
2019-06-20T02:39:19.394Z,18.00
2019-06-20T02:41:50.373Z,18.20
2019-06-20T02:44:30.019Z,18.10
2019-06-20T02:46:55.941Z,18.00
2019-06-20T02:49:27.775Z,18.00
2019-06-20T02:52:00.055Z,18.00
2019-06-20T02:54:32.004Z,18.00
2019-06-20T02:57:02.690Z,18.20
2019-06-20T02:59:33.637Z,18.00
2019-06-20T03:02:05.637Z,18.00
2019-06-20T03:04:37.503Z,18.10
2019-06-20T03:07:08.803Z,18.20
2019-06-20T03:09:40.351Z,18.10
2019-06-20T03:12:11.900Z,18.00
2019-06-20T03:14:45.663Z,17.90
2019-06-20T03:17:16.528Z,17.90
2019-06-20T03:19:48.096Z,17.80
2019-06-20T03:22:19.082Z,17.70
2019-06-20T03:24:50.935Z,17.60
2019-06-20T03:27:22.956Z,17.50
2019-06-20T03:29:54.792Z,17.60
2019-06-20T03:32:25.499Z,17.60
2019-06-20T03:34:56.817Z,17.60
2019-06-20T03:37:28.444Z,17.60
2019-06-20T03:39:59.987Z,17.50
2019-06-20T03:42:31.280Z,17.60
2019-06-20T03:45:02.984Z,17.70
2019-06-20T03:47:34.531Z,17.80
2019-06-20T03:50:05.863Z,17.80
2019-06-20T03:52:37.273Z,17.80
2019-06-20T03:55:08.654Z,17.90
2019-06-20T03:57:40.093Z,18.10
2019-06-20T04:00:13.958Z,18.10
2019-06-20T04:02:45.906Z,18.10
2019-06-20T04:05:16.900Z,18.10
2019-06-20T04:07:48.796Z,18.10
2019-06-20T04:10:20.856Z,18.10
2019-06-20T04:12:52.535Z,18.20
2019-06-20T04:15:24.056Z,18.30
2019-06-20T04:17:55.456Z,18.30
2019-06-20T04:20:26.764Z,18.50
2019-06-20T04:22:57.711Z,18.50
2019-06-20T04:25:29.243Z,18.40
2019-06-20T04:28:00.791Z,18.50
2019-06-20T04:30:32.177Z,18.60
2019-06-20T04:33:04.373Z,18.60
2019-06-20T04:35:36.247Z,18.50
2019-06-20T04:38:07.286Z,18.50
2019-06-20T04:40:38.270Z,18.60
2019-06-20T04:43:10.129Z,18.60
2019-06-20T04:45:59.468Z,18.70
2019-06-20T04:48:31.519Z,18.80
2019-06-20T04:51:03.334Z,18.80
2019-06-20T04:53:34.906Z,18.80
2019-06-20T04:56:06.260Z,18.80
2019-06-20T04:58:37.881Z,18.80
2019-06-20T05:01:09.652Z,18.90
2019-06-20T05:03:40.968Z,19.00
2019-06-20T05:06:11.899Z,19.00
2019-06-20T05:08:42.980Z,19.30
2019-06-20T05:11:14.261Z,19.30
2019-06-20T05:13:45.872Z,19.40
2019-06-20T05:16:17.514Z,19.50
2019-06-20T05:18:49.097Z,19.40
2019-06-20T05:21:22.483Z,19.40
2019-06-20T05:23:53.380Z,19.40
2019-06-20T05:26:24.412Z,19.50
2019-06-20T05:28:55.908Z,19.70
2019-06-20T05:31:27.516Z,20.00
2019-06-20T05:34:01.543Z,20.00
2019-06-20T05:36:33.656Z,19.80
2019-06-20T05:39:06.768Z,19.90
2019-06-20T05:41:38.009Z,19.80
2019-06-20T05:44:08.870Z,19.90
2019-06-20T05:46:40.136Z,19.90
2019-06-20T05:49:11.871Z,19.90
2019-06-20T05:51:43.112Z,19.90
2019-06-20T05:54:14.629Z,20.00
2019-06-20T05:56:45.975Z,20.20
2019-06-20T05:59:17.768Z,20.20
2019-06-20T06:01:48.970Z,20.20
2019-06-20T06:04:20.496Z,20.30
2019-06-20T06:06:51.494Z,20.40
2019-06-20T06:09:23.078Z,20.30
2019-06-20T06:11:54.091Z,20.30
2019-06-20T06:14:25.614Z,20.30
2019-06-20T06:16:56.630Z,20.40
2019-06-20T06:19:27.914Z,20.50
2019-06-20T06:21:59.619Z,20.60
2019-06-20T06:24:31.535Z,20.80
2019-06-20T06:27:02.553Z,20.90
2019-06-20T06:29:34.206Z,20.90
2019-06-20T06:32:05.973Z,21.00
2019-06-20T06:34:38.832Z,21.00
2019-06-20T06:37:10.424Z,21.10
2019-06-20T06:39:43.545Z,21.00
2019-06-20T06:42:15.294Z,21.10
2019-06-20T06:44:46.672Z,21.10
2019-06-20T06:47:18.452Z,21.30
2019-06-20T06:49:49.562Z,21.20
2019-06-20T06:52:20.798Z,21.00
2019-06-20T06:54:52.119Z,20.80
2019-06-20T06:57:24.138Z,20.70
2019-06-20T06:59:55.268Z,20.70
2019-06-20T07:02:26.771Z,20.80
2019-06-20T07:04:57.719Z,20.80
2019-06-20T07:07:29.647Z,20.80
2019-06-20T07:10:01.066Z,20.90
2019-06-20T07:12:32.415Z,20.90
2019-06-20T07:15:03.728Z,21.00
2019-06-20T07:17:35.122Z,21.10
2019-06-20T07:20:07.717Z,21.30
2019-06-20T07:22:39.847Z,21.30
2019-06-20T07:25:11.750Z,21.20
2019-06-20T07:27:43.890Z,21.20
2019-06-20T07:30:17.148Z,21.30
2019-06-20T07:32:48.427Z,21.30
2019-06-20T07:35:19.373Z,21.20
2019-06-20T07:37:51.057Z,21.20
2019-06-20T07:40:22.909Z,21.10
2019-06-20T07:42:54.453Z,21.20
2019-06-20T07:45:28.814Z,21.40
2019-06-20T07:48:00.520Z,21.50
2019-06-20T07:50:32.526Z,21.60
2019-06-20T07:53:03.905Z,21.80
2019-06-20T07:55:35.694Z,22.00
2019-06-20T07:58:06.805Z,22.10
2019-06-20T08:00:37.894Z,22.10
2019-06-20T08:03:09.507Z,22.10
2019-06-20T08:05:41.256Z,22.10
2019-06-20T08:08:12.944Z,22.20
2019-06-20T08:10:44.664Z,22.30
2019-06-20T08:13:16.169Z,22.40
2019-06-20T08:15:47.829Z,22.60
2019-06-20T08:18:19.981Z,22.50
2019-06-20T08:20:52.514Z,22.50
2019-06-20T08:23:57.099Z,22.50
2019-06-20T08:26:29.353Z,22.50
2019-06-20T08:29:21.123Z,22.60
2019-06-20T08:31:54.003Z,22.70
2019-06-20T08:34:25.918Z,22.60
2019-06-20T08:37:00.207Z,22.60
2019-06-20T08:39:32.556Z,22.50
2019-06-20T08:42:04.342Z,22.70
2019-06-20T08:44:36.155Z,22.80
2019-06-20T08:47:06.984Z,22.70
2019-06-20T08:49:38.032Z,22.60
2019-06-20T08:52:09.344Z,22.70
2019-06-20T08:54:41.090Z,22.90
2019-06-20T08:57:12.790Z,22.90
2019-06-20T08:59:44.090Z,23.00
2019-06-20T09:02:16.080Z,23.40
2019-06-20T09:04:47.386Z,23.50
2019-06-20T09:07:19.191Z,23.50
2019-06-20T09:09:50.641Z,23.60
2019-06-20T09:12:22.428Z,23.50
2019-06-20T09:14:55.095Z,23.60
2019-06-20T09:17:27.147Z,23.50
2019-06-20T09:20:00.151Z,23.70
2019-06-20T09:22:31.990Z,23.70
2019-06-20T09:25:02.973Z,23.60
2019-06-20T09:27:34.944Z,23.50
2019-06-20T09:30:07.375Z,23.40
2019-06-20T09:32:38.862Z,23.50
2019-06-20T09:35:13.083Z,23.20
2019-06-20T09:37:44.487Z,23.40
2019-06-20T09:40:18.241Z,23.40
2019-06-20T09:42:52.877Z,23.30
2019-06-20T09:45:24.308Z,23.30
2019-06-20T09:47:58.566Z,23.30
2019-06-20T09:50:29.946Z,23.50
2019-06-20T09:53:02.232Z,23.40
2019-06-20T09:55:33.627Z,23.40
2019-06-20T09:58:13.349Z,23.50
2019-06-20T10:00:55.116Z,23.70
2019-06-20T10:03:27.768Z,24.30
2019-06-20T10:06:00.100Z,25.10
2019-06-20T10:08:31.561Z,25.30
2019-06-20T10:11:02.976Z,25.80
2019-06-20T10:13:35.112Z,25.80
2019-06-20T10:16:07.164Z,25.70
2019-06-20T10:18:38.478Z,25.50
2019-06-20T10:21:10.307Z,25.70
2019-06-20T10:23:42.130Z,25.50
2019-06-20T10:26:13.737Z,25.20
2019-06-20T10:28:46.319Z,25.10
2019-06-20T10:31:19.107Z,25.50
2019-06-20T10:33:50.823Z,25.60
2019-06-20T10:36:23.052Z,25.60
2019-06-20T10:38:54.794Z,25.50
2019-06-20T10:41:26.426Z,25.30
2019-06-20T10:43:58.143Z,25.40
2019-06-20T10:46:30.233Z,25.30
2019-06-20T10:49:02.369Z,25.20
2019-06-20T10:51:42.416Z,25.10
2019-06-20T10:54:14.349Z,24.80
2019-06-20T10:56:47.098Z,24.50
2019-06-20T10:59:18.653Z,24.30
2019-06-20T11:01:50.678Z,24.30
2019-06-20T11:04:23.048Z,24.20
2019-06-20T11:06:54.465Z,24.00
2019-06-20T11:09:25.871Z,23.90
2019-06-20T11:11:57.677Z,23.90
2019-06-20T11:14:29.179Z,23.80
2019-06-20T11:17:01.162Z,23.80
2019-06-20T11:19:33.485Z,23.90
2019-06-20T11:22:04.967Z,24.00
2019-06-20T11:24:37.640Z,23.90
2019-06-20T11:27:09.642Z,23.80
2019-06-20T11:29:44.081Z,23.90
2019-06-20T11:32:15.904Z,24.00
2019-06-20T11:34:47.619Z,23.90
2019-06-20T11:37:18.719Z,23.80
2019-06-20T11:39:51.353Z,24.00
2019-06-20T11:42:23.263Z,24.00
2019-06-20T11:44:55.174Z,24.00
2019-06-20T11:47:27.208Z,24.00
2019-06-20T11:49:59.079Z,24.50
2019-06-20T11:52:35.257Z,25.00
2019-06-20T11:55:04.650Z,25.30
2019-06-20T11:57:36.431Z,25.50
2019-06-20T12:00:09.506Z,25.40
2019-06-20T12:02:42.789Z,25.30
2019-06-20T12:05:17.751Z,25.30
2019-06-20T12:07:50.014Z,25.10
2019-06-20T12:10:24.479Z,24.90
2019-06-20T12:12:56.020Z,24.60
2019-06-20T12:15:42.763Z,24.60
2019-06-20T12:18:14.808Z,24.60
2019-06-20T12:25:14.704Z,24.50
2019-06-20T12:27:47.657Z,24.40
2019-06-20T12:31:18.960Z,24.40
2019-06-20T12:33:41.006Z,24.40
2019-06-20T12:36:13.131Z,24.30
2019-06-20T12:38:46.253Z,24.10
2019-06-20T12:42:09.630Z,24.00
2019-06-20T12:44:41.924Z,24.10
2019-06-20T12:47:21.981Z,24.00
2019-06-20T12:49:52.886Z,24.00
2019-06-20T12:52:24.608Z,23.90
2019-06-20T12:55:15.451Z,23.80
2019-06-20T12:57:48.535Z,24.00
2019-06-20T13:00:23.934Z,23.90
2019-06-20T13:02:55.999Z,24.20
2019-06-20T13:13:17.144Z,24.40
2019-06-20T13:15:49.053Z,24.40
2019-06-20T13:19:34.770Z,24.20
2019-06-20T13:22:05.820Z,24.30
2019-06-20T13:27:28.320Z,24.30
2019-06-20T13:30:00.646Z,24.20
2019-06-20T13:32:32.588Z,24.30
2019-06-20T13:35:03.804Z,24.30
2019-06-20T13:37:35.944Z,24.10
2019-06-20T13:40:10.186Z,24.00
2019-06-20T13:42:44.210Z,24.00
2019-06-20T13:45:25.035Z,24.00
2019-06-20T13:48:00.243Z,24.00
2019-06-20T13:50:32.206Z,24.00
2019-06-20T13:53:04.371Z,24.00
2019-06-20T13:55:37.347Z,24.00
2019-06-20T13:58:09.781Z,24.00
2019-06-20T14:00:45.008Z,23.80
2019-06-20T14:03:17.363Z,23.60
2019-06-20T14:05:49.926Z,23.70
2019-06-20T14:08:24.622Z,23.60
2019-06-20T14:11:03.713Z,23.60
2019-06-20T14:14:04.165Z,23.60
2019-06-20T14:16:44.810Z,23.50
2019-06-20T14:19:16.999Z,23.50
2019-06-20T14:24:25.375Z,23.60
2019-06-20T14:27:00.449Z,23.60
2019-06-20T14:30:19.830Z,23.40
2019-06-20T14:32:51.850Z,23.40
2019-06-20T14:35:26.595Z,23.20
2019-06-20T14:37:59.607Z,23.20
2019-06-20T14:40:31.587Z,23.40
2019-06-20T14:43:04.062Z,23.50
2019-06-20T14:45:37.969Z,23.50
2019-06-20T14:48:08.843Z,23.60
2019-06-20T14:50:43.811Z,23.60
2019-06-20T14:53:18.299Z,23.90
2019-06-20T14:55:53.932Z,25.00
2019-06-20T14:58:28.281Z,26.00
2019-06-20T15:01:00.300Z,26.70
2019-06-20T15:03:32.483Z,27.60
2019-06-20T15:06:05.266Z,27.80
2019-06-20T15:08:38.353Z,27.30
2019-06-20T15:11:12.475Z,27.10
2019-06-20T15:13:47.660Z,27.80
2019-06-20T15:16:24.544Z,28.40
2019-06-20T15:18:58.010Z,28.10
2019-06-20T15:21:31.879Z,27.30
2019-06-20T15:24:03.655Z,27.10
2019-06-20T15:26:40.795Z,27.80
2019-06-20T15:29:12.968Z,28.20
2019-06-20T15:31:47.679Z,28.40
2019-06-20T15:34:21.554Z,28.80
2019-06-20T15:36:53.468Z,29.20
2019-06-20T15:39:39.133Z,29.40
2019-06-20T15:42:11.123Z,29.80
2019-06-20T15:44:50.086Z,29.80
2019-06-20T15:47:24.970Z,29.60
2019-06-20T15:50:00.859Z,29.80
2019-06-20T15:52:38.345Z,30.40
2019-06-20T15:58:12.849Z,29.50
2019-06-20T16:00:51.596Z,28.90
2019-06-20T16:03:54.809Z,29.30
2019-06-20T16:06:26.895Z,29.90
2019-06-20T16:08:58.233Z,29.70
2019-06-20T16:11:29.830Z,29.90
2019-06-20T16:14:01.171Z,30.30
2019-06-20T16:16:32.858Z,30.40
2019-06-20T16:19:04.296Z,30.30
2019-06-20T16:21:35.939Z,30.80
2019-06-20T16:24:07.899Z,30.80
2019-06-20T16:26:40.153Z,30.80
2019-06-20T16:29:12.001Z,31.00
2019-06-20T16:31:43.690Z,31.10
2019-06-20T16:34:15.401Z,31.10
2019-06-20T16:36:46.694Z,30.90
2019-06-20T16:39:17.919Z,30.90
2019-06-20T16:41:49.041Z,30.10
2019-06-20T16:44:21.855Z,30.00
2019-06-20T16:46:54.181Z,29.50
2019-06-20T16:49:26.107Z,28.70
2019-06-20T16:51:57.428Z,28.30
2019-06-20T16:54:30.188Z,28.00
2019-06-20T16:57:02.190Z,28.90
2019-06-20T16:59:34.362Z,29.60
2019-06-20T17:02:06.117Z,30.00
2019-06-20T17:04:38.235Z,30.00
2019-06-20T17:07:10.110Z,29.90
2019-06-20T17:09:42.705Z,29.30
2019-06-20T17:12:15.098Z,28.80
2019-06-20T17:14:47.781Z,28.20
2019-06-20T17:17:19.901Z,27.90
2019-06-20T17:19:52.628Z,27.60
2019-06-20T17:22:25.529Z,27.50
2019-06-20T17:25:00.400Z,27.50
2019-06-20T17:27:33.004Z,27.70
2019-06-20T17:30:06.010Z,28.20
2019-06-20T17:32:38.283Z,28.80
2019-06-20T17:35:11.441Z,29.50
2019-06-20T17:37:44.967Z,29.80
2019-06-20T17:40:18.515Z,30.10
2019-06-20T17:42:50.713Z,29.70
2019-06-20T17:45:22.958Z,29.40
2019-06-20T17:47:54.276Z,29.90
2019-06-20T17:50:26.106Z,30.10
2019-06-20T17:53:01.253Z,30.00
2019-06-20T17:55:33.558Z,30.00
2019-06-20T17:58:05.244Z,30.00
2019-06-20T18:00:38.165Z,30.00
2019-06-20T18:03:10.912Z,30.00
2019-06-20T18:05:44.619Z,29.80
2019-06-20T18:08:18.166Z,29.60
2019-06-20T18:10:50.611Z,29.40
2019-06-20T18:13:23.083Z,29.40
2019-06-20T18:15:56.596Z,29.20
2019-06-20T18:18:29.865Z,28.90
2019-06-20T18:21:01.536Z,28.50
2019-06-20T18:23:33.190Z,27.90
2019-06-20T18:26:05.122Z,27.60
2019-06-20T18:28:36.923Z,27.30
2019-06-20T18:31:08.640Z,27.20
2019-06-20T18:33:41.130Z,26.70
2019-06-20T18:36:13.144Z,26.80
2019-06-20T18:38:45.444Z,27.00
2019-06-20T18:41:17.607Z,27.20
2019-06-20T18:43:49.399Z,27.10
2019-06-20T18:46:21.591Z,26.80
2019-06-20T18:48:54.005Z,26.80
2019-06-20T18:51:26.344Z,26.50
2019-06-20T18:53:58.549Z,26.40
2019-06-20T18:56:31.009Z,26.10
2019-06-20T18:59:02.575Z,25.90
2019-06-20T19:01:34.548Z,25.70
2019-06-20T19:04:05.907Z,25.50
2019-06-20T19:06:38.207Z,25.20
2019-06-20T19:09:11.818Z,24.90
2019-06-20T19:11:43.331Z,24.80
2019-06-20T19:14:15.329Z,24.70
2019-06-20T19:16:47.682Z,24.40
2019-06-20T19:19:20.896Z,24.20
2019-06-20T19:21:52.753Z,24.00
2019-06-20T19:24:24.674Z,23.90
2019-06-20T19:26:56.074Z,23.80
2019-06-20T19:29:28.289Z,23.70
2019-06-20T19:31:59.725Z,23.60
2019-06-20T19:34:31.397Z,23.50
2019-06-20T19:37:03.613Z,23.50
2019-06-20T19:39:35.673Z,23.50
2019-06-20T19:42:09.502Z,23.30
2019-06-20T19:44:41.779Z,23.20
2019-06-20T19:47:13.744Z,23.20
2019-06-20T19:49:47.211Z,23.10
2019-06-20T19:52:21.707Z,23.10
2019-06-20T19:54:54.136Z,23.00
2019-06-20T19:57:25.650Z,23.00
2019-06-20T19:59:59.103Z,22.90
2019-06-20T20:02:31.080Z,22.90
2019-06-20T20:05:17.763Z,22.90
2019-06-20T20:07:38.059Z,22.80
2019-06-20T20:10:11.933Z,22.80
2019-06-20T20:12:43.474Z,22.90
2019-06-20T20:15:15.523Z,22.80
2019-06-20T20:17:49.251Z,22.80
2019-06-20T20:20:21.495Z,22.90
2019-06-20T20:22:52.714Z,22.80
2019-06-20T20:25:25.455Z,22.80
2019-06-20T20:27:58.443Z,22.70
2019-06-20T20:30:30.625Z,22.50
2019-06-20T20:33:02.235Z,22.50
2019-06-20T20:35:35.748Z,22.50
2019-06-20T20:38:06.984Z,22.40
2019-06-20T20:40:38.676Z,22.30
2019-06-20T20:43:10.539Z,22.30
2019-06-20T20:45:41.992Z,22.20
2019-06-20T20:48:13.972Z,22.20
2019-06-20T20:50:46.074Z,22.10
2019-06-20T20:53:18.043Z,22.10
2019-06-20T20:55:49.778Z,21.90
2019-06-20T20:58:20.631Z,21.80
2019-06-20T21:01:21.988Z,21.80
2019-06-20T21:03:53.767Z,21.70
2019-06-20T21:06:25.645Z,21.70
2019-06-20T21:08:57.031Z,21.60
2019-06-20T21:11:28.892Z,21.50
2019-06-20T21:14:01.030Z,21.50
2019-06-20T21:16:31.831Z,21.30
2019-06-20T21:19:03.418Z,21.40
2019-06-20T21:21:34.878Z,21.40
2019-06-20T21:24:06.282Z,21.50
2019-06-20T21:26:48.937Z,21.40
2019-06-20T21:29:11.454Z,21.30
2019-06-20T21:31:43.195Z,21.30
2019-06-20T21:34:15.102Z,21.30
2019-06-20T21:36:46.800Z,21.30
2019-06-20T21:39:18.293Z,21.30
2019-06-20T21:41:49.998Z,21.20
2019-06-20T21:44:21.820Z,21.10
2019-06-20T21:46:53.323Z,21.10
2019-06-20T21:49:25.412Z,21.10
2019-06-20T21:51:57.194Z,21.10
2019-06-20T21:54:28.928Z,21.10
2019-06-20T21:57:00.922Z,21.10
2019-06-20T21:59:32.954Z,21.10
2019-06-20T22:02:05.080Z,21.10
2019-06-20T22:04:36.528Z,21.00
2019-06-20T22:07:07.975Z,21.00
2019-06-20T22:09:38.718Z,21.10
2019-06-20T22:12:10.124Z,21.20
2019-06-20T22:14:41.457Z,21.20
2019-06-20T22:17:13.165Z,21.10
2019-06-20T22:19:44.771Z,21.00
2019-06-20T22:22:16.110Z,20.80
2019-06-20T22:24:47.483Z,20.90
2019-06-20T22:27:19.558Z,21.10
2019-06-20T22:29:51.245Z,20.90
2019-06-20T22:32:22.520Z,20.80
2019-06-20T22:34:54.151Z,20.70
2019-06-20T22:37:25.944Z,20.80
2019-06-20T22:39:58.276Z,20.70
2019-06-20T22:42:30.209Z,20.60
2019-06-20T22:45:01.647Z,20.50
2019-06-20T22:47:33.160Z,20.60
2019-06-20T22:50:04.246Z,20.50
2019-06-20T22:52:36.270Z,20.50
2019-06-20T22:55:07.953Z,20.50
2019-06-20T22:57:38.716Z,20.50
2019-06-20T23:00:09.752Z,20.40
2019-06-20T23:02:41.438Z,20.50
2019-06-20T23:05:13.483Z,20.50
2019-06-20T23:07:44.634Z,20.40
2019-06-20T23:10:16.668Z,20.30
2019-06-20T23:12:47.913Z,20.20
2019-06-20T23:15:19.612Z,20.20
2019-06-20T23:17:51.279Z,20.10
2019-06-20T23:20:22.739Z,20.10
2019-06-20T23:22:54.556Z,20.30
2019-06-20T23:25:26.895Z,20.40
2019-06-20T23:27:59.237Z,20.30
2019-06-20T23:30:31.101Z,20.40
2019-06-20T23:33:02.929Z,20.30
2019-06-20T23:35:34.736Z,20.10
2019-06-20T23:38:06.114Z,20.10
2019-06-20T23:40:37.811Z,20.00
2019-06-20T23:43:09.840Z,20.00
2019-06-20T23:45:41.235Z,20.10
2019-06-20T23:48:12.761Z,20.20
2019-06-20T23:50:44.898Z,20.20
2019-06-20T23:53:26.909Z,20.10
2019-06-20T23:55:58.425Z,20.10
2019-06-20T23:58:30.436Z,20.20
